createdAt,value
2019-02-15T00:00:21.338Z,0.89
2019-02-15T00:01:21.481Z,0.86
2019-02-15T00:02:21.623Z,0.86
2019-02-15T00:03:21.768Z,0.79
2019-02-15T00:04:21.909Z,0.85
2019-02-15T00:05:22.057Z,0.89
2019-02-15T00:06:22.200Z,0.78
2019-02-15T00:07:22.343Z,0.90
2019-02-15T00:08:22.485Z,0.86
2019-02-15T00:09:22.627Z,0.78
2019-02-15T00:10:22.771Z,0.80
2019-02-15T00:11:22.915Z,0.79
2019-02-15T00:12:23.059Z,0.79
2019-02-15T00:13:23.206Z,0.89
2019-02-15T00:14:23.351Z,0.97
2019-02-15T00:15:23.493Z,0.85
2019-02-15T00:16:23.641Z,0.94
2019-02-15T00:17:23.780Z,0.92
2019-02-15T00:18:23.923Z,0.79
2019-02-15T00:19:24.069Z,0.71
2019-02-15T00:20:24.214Z,0.72
2019-02-15T00:21:24.359Z,0.72
2019-02-15T00:22:24.512Z,0.82
2019-02-15T00:23:24.646Z,0.80
2019-02-15T00:24:24.789Z,0.79
2019-02-15T00:25:24.933Z,0.67
2019-02-15T00:26:25.076Z,0.75
2019-02-15T00:27:25.217Z,0.58
2019-02-15T00:28:25.364Z,0.65
2019-02-15T00:29:25.509Z,0.67
2019-02-15T00:30:25.652Z,0.76
2019-02-15T00:31:25.797Z,0.65
2019-02-15T00:32:25.940Z,0.76
2019-02-15T00:33:26.082Z,0.72
2019-02-15T00:34:26.232Z,0.61
2019-02-15T00:35:26.374Z,0.48
2019-02-15T00:36:26.514Z,0.48
2019-02-15T00:37:26.660Z,0.53
2019-02-15T00:38:26.801Z,0.48
2019-02-15T00:39:26.946Z,0.52
2019-02-15T00:40:27.092Z,0.39
2019-02-15T00:41:27.234Z,0.48
2019-02-15T00:42:27.377Z,0.46
2019-02-15T00:43:27.524Z,0.38
2019-02-15T00:44:27.672Z,0.34
2019-02-15T00:45:27.812Z,0.31
2019-02-15T00:46:27.957Z,0.27
2019-02-15T00:47:28.100Z,0.38
2019-02-15T00:48:28.241Z,0.33
2019-02-15T00:49:28.388Z,0.30
2019-02-15T00:50:28.538Z,0.18
2019-02-15T00:51:28.676Z,0.24
2019-02-15T00:52:28.823Z,0.27
2019-02-15T00:53:28.964Z,0.41
2019-02-15T00:54:29.110Z,0.41
2019-02-15T00:55:29.253Z,0.33
2019-02-15T00:56:29.399Z,0.30
2019-02-15T00:57:29.538Z,0.33
2019-02-15T00:58:29.681Z,0.39
2019-02-15T00:59:29.827Z,0.41
2019-02-15T01:00:29.957Z,0.36
2019-02-15T01:01:30.118Z,0.27
2019-02-15T01:02:30.262Z,0.16
2019-02-15T01:03:30.404Z,0.21
2019-02-15T01:04:30.549Z,0.07
2019-02-15T01:05:30.692Z,0.20
2019-02-15T01:06:30.835Z,0.16
2019-02-15T01:07:30.972Z,0.18
2019-02-15T01:08:31.110Z,0.21
2019-02-15T01:09:31.253Z,0.10
2019-02-15T01:10:31.441Z,0.18
2019-02-15T01:11:31.540Z,0.06
2019-02-15T01:12:31.682Z,0.03
2019-02-15T01:13:31.825Z,0.15
2019-02-15T01:14:31.971Z,0.10
2019-02-15T01:15:32.114Z,0.18
2019-02-15T01:16:32.257Z,0.03
2019-02-15T01:17:32.402Z,0.16
2019-02-15T01:18:32.548Z,0.03
2019-02-15T01:19:32.689Z,0.07
2019-02-15T01:20:32.833Z,0.09
2019-02-15T01:21:32.978Z,0.15
2019-02-15T01:22:33.118Z,0.20
2019-02-15T01:23:33.261Z,0.18
2019-02-15T01:24:33.406Z,0.21
2019-02-15T01:25:33.547Z,0.16
2019-02-15T01:26:33.692Z,0.25
2019-02-15T01:27:33.835Z,0.28
2019-02-15T01:28:33.976Z,0.23
2019-02-15T01:29:34.121Z,0.27
2019-02-15T01:30:34.263Z,0.28
2019-02-15T01:31:34.413Z,0.15
2019-02-15T01:32:34.552Z,0.20
2019-02-15T01:33:34.695Z,0.27
2019-02-15T01:34:34.835Z,0.36
2019-02-15T01:35:34.980Z,0.39
2019-02-15T01:36:35.123Z,0.36
2019-02-15T01:37:35.266Z,0.42
2019-02-15T01:38:35.410Z,0.36
2019-02-15T01:39:35.551Z,0.31
2019-02-15T01:40:35.695Z,0.36
2019-02-15T01:41:35.839Z,0.18
2019-02-15T01:42:35.981Z,0.13
2019-02-15T01:43:40.025Z,0.07
2019-02-15T01:44:36.356Z,0.18
2019-02-15T01:45:36.398Z,0.10
2019-02-15T01:46:36.543Z,0.05
2019-02-15T01:47:36.688Z,0.18
2019-02-15T01:48:36.833Z,0.20
2019-02-15T01:49:36.973Z,0.21
2019-02-15T01:50:37.115Z,0.21
2019-02-15T01:51:37.258Z,0.21
2019-02-15T01:52:37.401Z,0.13
2019-02-15T01:53:37.557Z,0.18
2019-02-15T01:54:37.683Z,0.16
2019-02-15T01:55:37.817Z,0.18
2019-02-15T01:56:37.962Z,0.28
2019-02-15T01:57:38.104Z,0.13
2019-02-15T01:58:38.245Z,0.12
2019-02-15T01:59:38.398Z,0.09
2019-02-15T02:00:38.538Z,0.02
2019-02-15T02:01:38.681Z,0.15
2019-02-15T02:02:38.821Z,0.09
2019-02-15T02:03:38.966Z,-0.09
2019-02-15T02:04:39.109Z,0.02
2019-02-15T02:05:39.258Z,0.03
2019-02-15T02:06:39.395Z,0.03
2019-02-15T02:07:39.536Z,0.06
2019-02-15T02:08:39.680Z,-0.04
2019-02-15T02:09:39.821Z,0.07
2019-02-15T02:10:39.966Z,0.00
2019-02-15T02:11:40.119Z,-0.05
2019-02-15T02:12:40.268Z,-0.12
2019-02-15T02:13:48.987Z,-0.12
2019-02-15T02:14:40.539Z,-0.11
2019-02-15T02:15:40.683Z,-0.13
2019-02-15T02:16:40.826Z,-0.06
2019-02-15T02:17:40.971Z,-0.11
2019-02-15T02:18:41.113Z,-0.08
2019-02-15T02:19:41.253Z,-0.18
2019-02-15T02:20:41.398Z,-0.29
2019-02-15T02:21:41.540Z,-0.23
2019-02-15T02:22:41.684Z,-0.23
2019-02-15T02:23:41.826Z,-0.18
2019-02-15T02:24:41.965Z,-0.27
2019-02-15T02:25:42.110Z,-0.29
2019-02-15T02:26:42.255Z,-0.30
2019-02-15T02:27:42.397Z,-0.23
2019-02-15T02:28:42.537Z,-0.23
2019-02-15T02:29:42.680Z,-0.23
2019-02-15T02:30:42.820Z,-0.30
2019-02-15T02:31:42.972Z,-0.26
2019-02-15T02:32:43.105Z,-0.34
2019-02-15T02:33:43.253Z,-0.19
2019-02-15T02:34:43.391Z,-0.11
2019-02-15T02:35:43.535Z,-0.16
2019-02-15T02:36:43.677Z,-0.09
2019-02-15T02:37:43.821Z,-0.01
2019-02-15T02:38:43.964Z,-0.06
2019-02-15T02:39:44.112Z,-0.06
2019-02-15T02:40:44.244Z,0.00
2019-02-15T02:41:44.388Z,-0.05
2019-02-15T02:42:44.532Z,-0.09
2019-02-15T02:43:44.676Z,0.07
2019-02-15T02:44:44.819Z,-0.12
2019-02-15T02:45:44.960Z,0.02
2019-02-15T02:46:45.103Z,0.05
2019-02-15T02:47:45.247Z,0.03
2019-02-15T02:48:45.392Z,0.03
2019-02-15T02:49:45.534Z,0.03
2019-02-15T02:50:45.677Z,0.15
2019-02-15T02:51:45.818Z,0.15
2019-02-15T02:52:45.959Z,0.18
2019-02-15T02:53:46.104Z,0.13
2019-02-15T02:54:46.242Z,0.15
2019-02-15T02:55:46.386Z,0.10
2019-02-15T02:56:46.527Z,0.10
2019-02-15T02:57:46.671Z,0.12
2019-02-15T02:58:46.817Z,0.02
2019-02-15T02:59:46.959Z,-0.04
2019-02-15T03:00:47.101Z,-0.01
2019-02-15T03:01:47.243Z,-0.08
2019-02-15T03:02:47.386Z,-0.13
2019-02-15T03:03:47.529Z,0.06
2019-02-15T03:04:47.671Z,-0.05
2019-02-15T03:05:47.816Z,-0.05
2019-02-15T03:06:47.961Z,-0.09
2019-02-15T03:07:48.101Z,-0.06
2019-02-15T03:08:48.246Z,-0.15
2019-02-15T03:09:48.390Z,-0.12
2019-02-15T03:10:48.533Z,-0.15
2019-02-15T03:11:48.677Z,-0.23
2019-02-15T03:12:48.817Z,-0.22
2019-02-15T03:13:48.965Z,-0.19
2019-02-15T03:14:49.101Z,-0.08
2019-02-15T03:15:49.247Z,-0.05
2019-02-15T03:16:49.394Z,-0.16
2019-02-15T03:17:49.530Z,-0.08
2019-02-15T03:18:49.679Z,0.02
2019-02-15T03:19:49.816Z,-0.09
2019-02-15T03:20:49.963Z,0.00
2019-02-15T03:21:50.104Z,0.00
2019-02-15T03:22:50.246Z,0.02
2019-02-15T03:23:50.392Z,0.02
2019-02-15T03:24:50.531Z,-0.01
2019-02-15T03:25:50.677Z,0.06
2019-02-15T03:26:50.818Z,0.06
2019-02-15T03:27:50.964Z,-0.05
2019-02-15T03:28:51.102Z,-0.06
2019-02-15T03:29:51.248Z,-0.06
2019-02-15T03:30:51.392Z,-0.11
2019-02-15T03:31:51.534Z,-0.19
2019-02-15T03:32:51.681Z,-0.06
2019-02-15T03:33:51.821Z,-0.12
2019-02-15T03:34:51.962Z,-0.24
2019-02-15T03:35:52.104Z,-0.23
2019-02-15T03:36:52.247Z,-0.26
2019-02-15T03:37:52.389Z,-0.23
2019-02-15T03:38:52.532Z,-0.37
2019-02-15T03:39:52.675Z,-0.37
2019-02-15T03:40:52.824Z,-0.42
2019-02-15T03:41:52.960Z,-0.45
2019-02-15T03:42:53.101Z,-0.37
2019-02-15T03:43:53.246Z,-0.41
2019-02-15T03:44:53.392Z,-0.42
2019-02-15T03:45:53.547Z,-0.45
2019-02-15T03:46:53.676Z,-0.45
2019-02-15T03:47:53.820Z,-0.42
2019-02-15T03:48:53.961Z,-0.47
2019-02-15T03:49:54.106Z,-0.51
2019-02-15T03:50:54.250Z,-0.55
2019-02-15T03:51:54.393Z,-0.59
2019-02-15T03:52:54.537Z,-0.66
2019-02-15T03:53:54.682Z,-0.66
2019-02-15T03:54:54.822Z,-0.68
2019-02-15T03:55:54.964Z,-0.65
2019-02-15T03:56:55.107Z,-0.55
2019-02-15T03:57:55.247Z,-0.60
2019-02-15T03:58:55.390Z,-0.68
2019-02-15T03:59:55.534Z,-0.69
2019-02-15T04:00:55.686Z,-0.54
2019-02-15T04:01:55.821Z,-0.77
2019-02-15T04:02:56.002Z,-0.65
2019-02-15T04:03:56.116Z,-0.62
2019-02-15T04:04:56.258Z,-0.66
2019-02-15T04:05:56.401Z,-0.59
2019-02-15T04:06:56.544Z,-0.60
2019-02-15T04:07:56.688Z,-0.57
2019-02-15T04:08:56.828Z,-0.57
2019-02-15T04:09:56.971Z,-0.57
2019-02-15T04:10:57.115Z,-0.65
2019-02-15T04:11:57.257Z,-0.59
2019-02-15T04:12:57.399Z,-0.72
2019-02-15T04:13:57.557Z,-0.73
2019-02-15T04:14:57.687Z,-0.73
2019-02-15T04:15:57.831Z,-0.72
2019-02-15T04:16:57.973Z,-0.72
2019-02-15T04:17:58.115Z,-0.72
2019-02-15T04:18:58.257Z,-0.63
2019-02-15T04:19:58.402Z,-0.62
2019-02-15T04:20:58.544Z,-0.57
2019-02-15T04:21:58.685Z,-0.60
2019-02-15T04:22:58.830Z,-0.59
2019-02-15T04:23:58.972Z,-0.62
2019-02-15T04:24:59.128Z,-0.57
2019-02-15T04:25:59.261Z,-0.66
2019-02-15T04:26:59.400Z,-0.69
2019-02-15T04:27:59.545Z,-0.60
2019-02-15T04:28:59.687Z,-0.68
2019-02-15T04:29:59.828Z,-0.66
2019-02-15T04:30:59.968Z,-0.68
2019-02-15T04:32:00.118Z,-0.59
2019-02-15T04:33:00.261Z,-0.60
2019-02-15T04:34:00.404Z,-0.68
2019-02-15T04:35:00.660Z,-0.63
2019-02-15T04:36:00.689Z,-0.63
2019-02-15T04:37:00.832Z,-0.62
2019-02-15T04:38:00.971Z,-0.66
2019-02-15T04:39:01.117Z,-0.69
2019-02-15T04:40:01.264Z,-0.78
2019-02-15T04:41:01.400Z,-0.72
2019-02-15T04:42:01.546Z,-0.75
2019-02-15T04:43:01.690Z,-0.68
2019-02-15T04:44:01.832Z,-0.87
2019-02-15T04:45:02.027Z,-0.75
2019-02-15T04:46:02.115Z,-0.77
2019-02-15T04:47:02.259Z,-0.78
2019-02-15T04:48:02.403Z,-0.80
2019-02-15T04:49:02.544Z,-0.83
2019-02-15T04:50:02.694Z,-0.87
2019-02-15T04:51:02.842Z,-0.86
2019-02-15T04:52:02.970Z,-0.83
2019-02-15T04:53:03.304Z,-0.77
2019-02-15T04:54:03.253Z,-0.72
2019-02-15T04:55:03.398Z,-0.72
2019-02-15T04:56:03.540Z,-0.80
2019-02-15T04:57:03.680Z,-0.69
2019-02-15T04:58:03.826Z,-0.63
2019-02-15T04:59:03.971Z,-0.66
2019-02-15T05:00:04.112Z,-0.69
2019-02-15T05:01:04.257Z,-0.59
2019-02-15T05:02:04.399Z,-0.59
2019-02-15T05:03:04.538Z,-0.57
2019-02-15T05:04:04.684Z,-0.65
2019-02-15T05:05:04.825Z,-0.63
2019-02-15T05:06:04.963Z,-0.73
2019-02-15T05:07:05.113Z,-0.65
2019-02-15T05:08:05.285Z,-0.72
2019-02-15T05:09:05.394Z,-0.70
2019-02-15T05:10:05.536Z,-0.60
2019-02-15T05:11:05.682Z,-0.55
2019-02-15T05:12:05.820Z,-0.59
2019-02-15T05:13:05.968Z,-0.62
2019-02-15T05:14:06.105Z,-0.62
2019-02-15T05:15:06.246Z,-0.70
2019-02-15T05:16:06.388Z,-0.77
2019-02-15T05:17:06.538Z,-0.80
2019-02-15T05:18:06.676Z,-0.77
2019-02-15T05:19:06.814Z,-0.73
2019-02-15T05:20:06.961Z,-0.75
2019-02-15T05:21:07.108Z,-0.77
2019-02-15T05:22:07.247Z,-0.75
2019-02-15T05:23:07.386Z,-0.87
2019-02-15T05:24:07.534Z,-0.80
2019-02-15T05:25:07.693Z,-0.91
2019-02-15T05:26:07.808Z,-0.99
2019-02-15T05:27:07.956Z,-0.87
2019-02-15T05:28:08.983Z,-1.03
2019-02-15T05:29:08.241Z,-1.00
2019-02-15T05:30:08.392Z,-1.07
2019-02-15T05:31:08.528Z,-0.94
2019-02-15T05:32:08.664Z,-0.94
2019-02-15T05:33:08.809Z,-0.86
2019-02-15T05:34:08.953Z,-0.99
2019-02-15T05:35:09.097Z,-1.12
2019-02-15T05:36:09.241Z,-1.09
2019-02-15T05:37:09.381Z,-1.18
2019-02-15T05:38:09.524Z,-1.15
2019-02-15T05:39:09.668Z,-1.20
2019-02-15T05:40:09.809Z,-1.18
2019-02-15T05:41:09.956Z,-1.12
2019-02-15T05:42:10.095Z,-1.13
2019-02-15T05:43:10.237Z,-1.06
2019-02-15T05:44:10.387Z,-1.21
2019-02-15T05:45:10.527Z,-1.15
2019-02-15T05:46:10.727Z,-1.30
2019-02-15T05:47:10.810Z,-1.24
2019-02-15T05:48:10.952Z,-1.17
2019-02-15T05:49:11.097Z,-1.21
2019-02-15T05:50:11.254Z,-1.07
2019-02-15T05:51:11.384Z,-1.21
2019-02-15T05:52:11.523Z,-1.20
2019-02-15T05:53:11.668Z,-1.02
2019-02-15T05:54:11.812Z,-1.09
2019-02-15T05:55:11.954Z,-1.10
2019-02-15T05:56:12.113Z,-1.10
2019-02-15T05:57:12.246Z,-1.05
2019-02-15T05:58:12.382Z,-1.00
2019-02-15T05:59:12.531Z,-1.03
2019-02-15T06:00:12.669Z,-0.95
2019-02-15T06:01:12.815Z,-1.03
2019-02-15T06:02:12.957Z,-1.09
2019-02-15T06:03:13.822Z,-1.06
2019-02-15T06:04:13.241Z,-1.10
2019-02-15T06:05:13.384Z,-1.06
2019-02-15T06:06:13.525Z,-1.20
2019-02-15T06:07:13.668Z,-1.09
2019-02-15T06:08:13.810Z,-1.17
2019-02-15T06:09:13.954Z,-1.15
2019-02-15T06:10:14.099Z,-1.10
2019-02-15T06:11:14.239Z,-1.03
2019-02-15T06:12:14.386Z,-1.20
2019-02-15T06:13:14.526Z,-1.06
2019-02-15T06:14:14.667Z,-1.17
2019-02-15T06:15:15.687Z,-1.31
2019-02-15T06:16:14.966Z,-1.31
2019-02-15T06:17:15.095Z,-1.35
2019-02-15T06:18:15.242Z,-1.36
2019-02-15T06:19:15.386Z,-1.36
2019-02-15T06:20:15.536Z,-1.20
2019-02-15T06:21:15.666Z,-1.18
2019-02-15T06:22:15.814Z,-1.28
2019-02-15T06:23:15.953Z,-1.12
2019-02-15T06:24:16.096Z,-1.23
2019-02-15T06:25:16.262Z,-1.12
2019-02-15T06:26:16.384Z,-1.17
2019-02-15T06:27:16.524Z,-1.21
2019-02-15T06:28:16.669Z,-1.15
2019-02-15T06:29:16.815Z,-1.15
2019-02-15T06:30:16.958Z,-1.10
2019-02-15T06:31:17.101Z,-1.20
2019-02-15T06:32:17.244Z,-1.20
2019-02-15T06:33:17.382Z,-1.24
2019-02-15T06:34:17.527Z,-1.20
2019-02-15T06:35:17.668Z,-1.12
2019-02-15T06:36:17.817Z,-1.24
2019-02-15T06:37:17.955Z,-1.15
2019-02-15T06:38:18.114Z,-1.20
2019-02-15T06:39:18.240Z,-1.07
2019-02-15T06:40:18.384Z,-1.10
2019-02-15T06:41:18.528Z,-1.13
2019-02-15T06:42:18.675Z,-1.18
2019-02-15T06:43:18.816Z,-1.13
2019-02-15T06:44:18.956Z,-1.20
2019-02-15T06:45:24.949Z,-1.18
2019-02-15T06:46:19.240Z,-1.13
2019-02-15T06:47:19.387Z,-1.03
2019-02-15T06:48:19.523Z,-1.12
2019-02-15T06:49:19.665Z,-1.06
2019-02-15T06:50:19.842Z,-1.10
2019-02-15T06:51:19.949Z,-1.02
2019-02-15T06:52:20.093Z,-1.06
2019-02-15T06:53:20.245Z,-1.12
2019-02-15T06:54:20.384Z,-1.05
2019-02-15T06:55:20.519Z,-1.06
2019-02-15T06:56:20.662Z,-1.07
2019-02-15T06:57:20.802Z,-1.03
2019-02-15T06:58:20.950Z,-1.02
2019-02-15T06:59:21.089Z,-1.07
2019-02-15T07:00:21.233Z,-1.12
2019-02-15T07:01:21.380Z,-0.99
2019-02-15T07:02:21.517Z,-0.92
2019-02-15T07:03:21.658Z,-0.99
2019-02-15T07:04:21.803Z,-0.97
2019-02-15T07:05:21.945Z,-0.89
2019-02-15T07:06:22.090Z,-1.00
2019-02-15T07:07:22.233Z,-0.92
2019-02-15T07:08:22.374Z,-0.86
2019-02-15T07:09:22.520Z,-0.84
2019-02-15T07:10:22.661Z,-0.81
2019-02-15T07:11:22.805Z,-0.70
2019-02-15T07:12:22.945Z,-0.78
2019-02-15T07:13:23.088Z,-0.87
2019-02-15T07:14:23.231Z,-0.63
2019-02-15T07:15:23.375Z,-0.62
2019-02-15T07:16:23.516Z,-0.55
2019-02-15T07:17:23.661Z,-0.60
2019-02-15T07:18:23.802Z,-0.68
2019-02-15T07:19:23.948Z,-0.50
2019-02-15T07:20:24.088Z,-0.52
2019-02-15T07:21:24.232Z,-0.54
2019-02-15T07:22:24.377Z,-0.59
2019-02-15T07:23:24.519Z,-0.66
2019-02-15T07:24:24.662Z,-0.73
2019-02-15T07:25:24.807Z,-0.54
2019-02-15T07:26:24.947Z,-0.60
2019-02-15T07:27:25.093Z,-0.65
2019-02-15T07:28:25.236Z,-0.70
2019-02-15T07:29:25.378Z,-0.63
2019-02-15T07:30:25.522Z,-0.63
2019-02-15T07:31:25.665Z,-0.63
2019-02-15T07:32:25.808Z,-0.66
2019-02-15T07:33:25.953Z,-0.59
2019-02-15T07:34:26.102Z,-0.50
2019-02-15T07:35:26.244Z,-0.37
2019-02-15T07:36:26.384Z,-0.44
2019-02-15T07:37:26.527Z,-0.52
2019-02-15T07:38:26.671Z,-0.39
2019-02-15T07:39:26.816Z,-0.41
2019-02-15T07:40:26.961Z,-0.41
2019-02-15T07:41:27.102Z,-0.44
2019-02-15T07:42:27.250Z,-0.37
2019-02-15T07:43:27.394Z,-0.34
2019-02-15T07:44:27.535Z,-0.30
2019-02-15T07:45:27.680Z,-0.16
2019-02-15T07:46:27.822Z,-0.15
2019-02-15T07:47:27.966Z,-0.04
2019-02-15T07:48:28.114Z,-0.11
2019-02-15T07:49:28.258Z,-0.08
2019-02-15T07:50:28.400Z,-0.04
2019-02-15T07:51:28.543Z,0.05
2019-02-15T07:52:28.689Z,0.02
2019-02-15T07:53:28.832Z,0.13
2019-02-15T07:54:28.975Z,0.05
2019-02-15T07:55:29.120Z,0.12
2019-02-15T07:56:29.264Z,0.12
2019-02-15T07:57:29.406Z,0.15
2019-02-15T07:58:29.551Z,0.09
2019-02-15T07:59:29.695Z,0.09
2019-02-15T08:00:29.840Z,0.24
2019-02-15T08:01:29.983Z,0.18
2019-02-15T08:02:30.127Z,0.21
2019-02-15T08:03:30.272Z,0.09
2019-02-15T08:04:30.414Z,0.25
2019-02-15T08:05:30.557Z,0.18
2019-02-15T08:06:30.703Z,0.23
2019-02-15T08:07:30.846Z,0.18
2019-02-15T08:08:30.993Z,0.20
2019-02-15T08:09:31.137Z,0.34
2019-02-15T08:10:31.285Z,0.31
2019-02-15T08:11:31.424Z,0.38
2019-02-15T08:12:31.567Z,0.43
2019-02-15T08:13:31.711Z,0.33
2019-02-15T08:14:31.854Z,0.43
2019-02-15T08:15:36.174Z,0.36
2019-02-15T08:16:32.143Z,0.43
2019-02-15T08:17:32.288Z,0.41
2019-02-15T08:18:32.431Z,0.57
2019-02-15T08:19:32.575Z,0.65
2019-02-15T08:20:32.720Z,0.65
2019-02-15T08:21:32.864Z,0.68
2019-02-15T08:22:33.006Z,0.75
2019-02-15T08:23:33.150Z,0.85
2019-02-15T08:24:33.297Z,0.79
2019-02-15T08:25:33.441Z,0.89
2019-02-15T08:26:33.580Z,0.98
2019-02-15T08:27:33.726Z,1.08
2019-02-15T08:28:33.870Z,1.04
2019-02-15T08:29:34.014Z,1.06
2019-02-15T08:30:34.158Z,1.06
2019-02-15T08:31:34.304Z,1.07
2019-02-15T08:32:34.676Z,1.01
2019-02-15T08:33:34.590Z,1.01
2019-02-15T08:34:34.739Z,0.98
2019-02-15T08:35:34.878Z,1.00
2019-02-15T08:36:35.024Z,1.03
2019-02-15T08:37:35.179Z,1.15
2019-02-15T08:38:35.312Z,1.16
2019-02-15T08:39:35.456Z,1.18
2019-02-15T08:40:37.415Z,1.25
2019-02-15T08:41:35.747Z,1.28
2019-02-15T08:42:35.893Z,1.28
2019-02-15T08:43:36.036Z,1.36
2019-02-15T08:44:36.181Z,1.15
2019-02-15T08:45:36.325Z,1.28
2019-02-15T08:46:36.473Z,1.32
2019-02-15T08:47:36.618Z,1.29
2019-02-15T08:48:45.658Z,1.39
2019-02-15T08:49:36.911Z,1.46
2019-02-15T08:50:37.052Z,1.34
2019-02-15T08:51:37.199Z,1.51
2019-02-15T08:52:37.342Z,1.44
2019-02-15T08:53:37.487Z,1.46
2019-02-15T08:54:37.621Z,1.46
2019-02-15T08:55:37.779Z,1.40
2019-02-15T08:56:37.924Z,1.58
2019-02-15T08:57:38.068Z,1.55
2019-02-15T08:58:38.211Z,1.46
2019-02-15T08:59:38.356Z,1.44
2019-02-15T09:00:38.500Z,1.50
2019-02-15T09:01:38.646Z,1.58
2019-02-15T09:02:38.791Z,1.65
2019-02-15T09:03:38.935Z,1.65
2019-02-15T09:04:39.077Z,1.68
2019-02-15T09:05:39.221Z,1.71
2019-02-15T09:06:39.365Z,1.71
2019-02-15T09:07:39.510Z,1.75
2019-02-15T09:08:39.656Z,1.89
2019-02-15T09:09:39.801Z,1.85
2019-02-15T09:10:39.943Z,1.93
2019-02-15T09:11:40.090Z,1.97
2019-02-15T09:12:40.236Z,2.04
2019-02-15T09:13:40.378Z,2.02
2019-02-15T09:14:40.525Z,2.09
2019-02-15T09:15:40.673Z,2.20
2019-02-15T09:16:40.816Z,2.16
2019-02-15T09:17:40.961Z,2.41
2019-02-15T09:18:41.104Z,2.41
2019-02-15T09:19:41.253Z,2.59
2019-02-15T09:20:41.395Z,2.61
2019-02-15T09:21:41.541Z,2.70
2019-02-15T09:22:41.684Z,2.64
2019-02-15T09:23:41.829Z,2.56
2019-02-15T09:24:41.975Z,2.69
2019-02-15T09:25:42.118Z,2.77
2019-02-15T09:26:42.263Z,2.71
2019-02-15T09:27:42.409Z,2.85
2019-02-15T09:28:42.554Z,2.79
2019-02-15T09:29:42.698Z,2.82
2019-02-15T09:30:42.844Z,2.85
2019-02-15T09:31:42.987Z,2.87
2019-02-15T09:32:43.134Z,2.89
2019-02-15T09:33:43.278Z,2.92
2019-02-15T09:34:43.423Z,2.95
2019-02-15T09:35:43.569Z,2.92
2019-02-15T09:36:43.715Z,3.02
2019-02-15T09:37:43.859Z,3.03
2019-02-15T09:38:44.008Z,3.03
2019-02-15T09:39:44.150Z,3.10
2019-02-15T09:40:44.295Z,3.30
2019-02-15T09:41:44.440Z,3.33
2019-02-15T09:42:44.586Z,3.44
2019-02-15T09:43:44.734Z,3.52
2019-02-15T09:44:44.883Z,3.72
2019-02-15T09:45:45.042Z,3.80
2019-02-15T09:46:45.170Z,3.71
2019-02-15T09:47:45.316Z,3.79
2019-02-15T09:48:45.465Z,3.85
2019-02-15T09:49:46.794Z,3.85
2019-02-15T09:50:45.756Z,3.98
2019-02-15T09:51:45.900Z,4.00
2019-02-15T09:52:46.046Z,4.19
2019-02-15T09:53:46.191Z,4.22
2019-02-15T09:54:46.336Z,4.37
2019-02-15T09:55:46.486Z,4.29
2019-02-15T09:56:46.640Z,4.37
2019-02-15T09:57:46.774Z,4.43
2019-02-15T09:58:46.921Z,4.51
2019-02-15T09:59:47.066Z,4.61
2019-02-15T10:00:47.218Z,4.67
2019-02-15T10:01:47.362Z,4.72
2019-02-15T10:02:47.505Z,4.91
2019-02-15T10:03:47.659Z,4.91
2019-02-15T10:04:48.085Z,4.98
2019-02-15T10:05:48.047Z,4.99
2019-02-15T10:06:48.102Z,5.04
2019-02-15T10:07:48.240Z,5.05
2019-02-15T10:08:48.387Z,5.17
2019-02-15T10:09:48.534Z,5.20
2019-02-15T10:10:48.680Z,5.22
2019-02-15T10:11:48.832Z,5.35
2019-02-15T10:12:48.974Z,5.34
2019-02-15T10:13:49.122Z,5.40
2019-02-15T10:14:49.268Z,5.57
2019-02-15T10:15:49.414Z,5.41
2019-02-15T10:16:49.563Z,5.40
2019-02-15T10:17:49.705Z,5.46
2019-02-15T10:18:49.851Z,5.48
2019-02-15T10:19:50.001Z,5.50
2019-02-15T10:20:50.146Z,5.46
2019-02-15T10:21:50.307Z,5.53
2019-02-15T10:22:50.446Z,5.48
2019-02-15T10:23:50.589Z,5.49
2019-02-15T10:24:50.733Z,5.70
2019-02-15T10:25:50.877Z,5.81
2019-02-15T10:26:51.025Z,5.83
2019-02-15T10:27:51.170Z,5.77
2019-02-15T10:28:51.318Z,5.93
2019-02-15T10:29:51.465Z,5.98
2019-02-15T10:30:51.747Z,6.18
2019-02-15T10:31:51.794Z,6.28
2019-02-15T10:32:51.936Z,6.18
2019-02-15T10:33:52.078Z,6.25
2019-02-15T10:34:52.227Z,6.28
2019-02-15T10:35:52.373Z,6.38
2019-02-15T10:36:52.519Z,6.47
2019-02-15T10:37:52.666Z,6.50
2019-02-15T10:38:52.812Z,6.71
2019-02-15T10:39:52.977Z,6.69
2019-02-15T10:40:53.145Z,6.84
2019-02-15T10:41:53.335Z,6.86
2019-02-15T10:42:53.441Z,6.80
2019-02-15T10:43:53.592Z,6.89
2019-02-15T10:44:53.736Z,7.05
2019-02-15T10:45:53.883Z,6.99
2019-02-15T10:46:54.033Z,7.07
2019-02-15T10:47:54.178Z,7.20
2019-02-15T10:48:54.329Z,7.23
2019-02-15T10:49:54.475Z,7.31
2019-02-15T10:50:54.623Z,7.26
2019-02-15T10:51:54.772Z,7.32
2019-02-15T10:52:54.918Z,7.50
2019-02-15T10:53:55.069Z,7.50
2019-02-15T10:54:55.211Z,7.53
2019-02-15T10:55:55.359Z,7.60
2019-02-15T10:56:55.508Z,7.71
2019-02-15T10:57:55.656Z,7.85
2019-02-15T10:58:55.804Z,7.87
2019-02-15T10:59:55.948Z,7.99
2019-02-15T11:00:56.098Z,8.17
2019-02-15T11:01:56.251Z,8.15
2019-02-15T11:02:56.399Z,8.22
2019-02-15T11:03:56.552Z,8.26
2019-02-15T11:04:56.701Z,8.40
2019-02-15T11:05:56.854Z,8.32
2019-02-15T11:06:56.997Z,8.57
2019-02-15T11:07:57.147Z,8.58
2019-02-15T11:08:57.295Z,8.62
2019-02-15T11:09:57.446Z,8.72
2019-02-15T11:10:57.595Z,8.79
2019-02-15T11:11:57.741Z,8.81
2019-02-15T11:12:57.891Z,8.78
2019-02-15T11:13:58.036Z,8.93
2019-02-15T11:14:58.188Z,8.87
2019-02-15T11:15:58.335Z,8.97
2019-02-15T11:16:58.483Z,8.96
2019-02-15T11:17:58.636Z,9.25
2019-02-15T11:18:58.786Z,9.39
2019-02-15T11:19:58.935Z,9.60
2019-02-15T11:20:59.081Z,9.57
2019-02-15T11:21:59.236Z,9.61
2019-02-15T11:22:59.387Z,9.73
2019-02-15T11:23:59.535Z,9.75
2019-02-15T11:24:59.685Z,9.78
2019-02-15T11:25:59.834Z,9.71
2019-02-15T11:26:59.981Z,9.82
2019-02-15T11:28:00.132Z,9.96
2019-02-15T11:29:00.281Z,9.94
2019-02-15T11:30:00.430Z,10.09
2019-02-15T11:31:00.583Z,10.03
2019-02-15T11:32:00.730Z,10.10
2019-02-15T11:33:00.887Z,10.10
2019-02-15T11:34:01.035Z,10.09
2019-02-15T11:35:01.185Z,10.03
2019-02-15T11:36:01.333Z,10.01
2019-02-15T11:37:01.484Z,10.10
2019-02-15T11:38:01.634Z,10.14
2019-02-15T11:39:01.784Z,10.17
2019-02-15T11:40:01.936Z,10.26
2019-02-15T11:41:10.724Z,10.37
2019-02-15T11:42:02.234Z,10.30
2019-02-15T11:43:02.383Z,10.36
2019-02-15T11:44:02.533Z,10.53
2019-02-15T11:45:02.683Z,10.73
2019-02-15T11:46:02.839Z,10.58
2019-02-15T11:47:02.982Z,10.70
2019-02-15T11:48:03.132Z,10.66
2019-02-15T11:49:03.285Z,10.73
2019-02-15T11:50:03.429Z,10.86
2019-02-15T11:51:03.581Z,11.16
2019-02-15T11:52:03.728Z,10.98
2019-02-15T11:53:03.877Z,11.16
2019-02-15T11:54:04.030Z,11.24
2019-02-15T11:55:04.179Z,11.41
2019-02-15T11:56:04.329Z,11.64
2019-02-15T11:57:04.479Z,11.72
2019-02-15T11:58:04.630Z,11.67
2019-02-15T11:59:04.779Z,11.64
2019-02-15T12:00:13.585Z,11.65
2019-02-15T12:01:05.081Z,11.64
2019-02-15T12:02:06.456Z,11.62
2019-02-15T12:03:05.381Z,11.72
2019-02-15T12:04:05.533Z,11.74
2019-02-15T12:05:05.683Z,11.72
2019-02-15T12:06:05.835Z,11.90
2019-02-15T12:07:05.987Z,11.86
2019-02-15T12:08:06.138Z,11.94
2019-02-15T12:09:06.289Z,12.08
2019-02-15T12:10:06.439Z,12.16
2019-02-15T12:11:06.590Z,12.26
2019-02-15T12:12:10.827Z,12.44
2019-02-15T12:13:06.890Z,12.41
2019-02-15T12:14:07.041Z,12.48
2019-02-15T12:15:07.191Z,12.31
2019-02-15T12:16:07.343Z,12.20
2019-02-15T12:17:07.493Z,12.38
2019-02-15T12:18:07.643Z,12.57
2019-02-15T12:19:07.809Z,12.92
2019-02-15T12:20:07.988Z,13.03
2019-02-15T12:21:08.106Z,13.07
2019-02-15T12:22:08.254Z,12.99
2019-02-15T12:23:08.407Z,12.95
2019-02-15T12:24:08.556Z,12.97
2019-02-15T12:25:08.711Z,13.03
2019-02-15T12:26:08.860Z,13.04
2019-02-15T12:27:09.014Z,13.02
2019-02-15T12:28:09.164Z,12.99
2019-02-15T12:29:09.316Z,13.24
2019-02-15T12:30:09.469Z,13.38
2019-02-15T12:31:09.625Z,13.38
2019-02-15T12:32:09.787Z,13.36
2019-02-15T12:33:09.927Z,13.40
2019-02-15T12:34:10.080Z,13.27
2019-02-15T12:35:10.231Z,13.24
2019-02-15T12:36:10.383Z,13.24
2019-02-15T12:37:10.536Z,13.36
2019-02-15T12:38:10.685Z,13.56
2019-02-15T12:39:12.869Z,13.71
2019-02-15T12:40:11.011Z,13.56
2019-02-15T12:41:11.148Z,13.69
2019-02-15T12:42:11.296Z,13.69
2019-02-15T12:43:11.446Z,13.74
2019-02-15T12:44:11.602Z,14.06
2019-02-15T12:45:11.748Z,14.54
2019-02-15T12:46:11.898Z,15.31
2019-02-15T12:47:15.131Z,16.30
2019-02-15T12:48:12.204Z,16.98
2019-02-15T12:49:12.376Z,17.79
2019-02-15T12:50:12.532Z,18.17
2019-02-15T12:51:12.683Z,18.82
2019-02-15T12:52:12.834Z,19.57
2019-02-15T12:53:12.991Z,20.35
2019-02-15T12:54:13.142Z,21.02
2019-02-15T12:55:13.300Z,21.27
2019-02-15T12:56:13.451Z,21.19
2019-02-15T12:57:13.601Z,20.50
2019-02-15T12:58:13.756Z,20.46
2019-02-15T12:59:13.910Z,20.59
2019-02-15T13:00:14.062Z,20.95
2019-02-15T13:01:14.218Z,21.39
2019-02-15T13:02:14.375Z,21.44
2019-02-15T13:03:14.525Z,20.61
2019-02-15T13:04:14.682Z,20.13
2019-02-15T13:05:14.836Z,20.24
2019-02-15T13:06:14.989Z,19.68